sensor_id;sensor_type;location;lat;lon;timestamp;pressure;altitude;pressure_sealevel;temperature;humidity
15193;BME280;7697;51.630;7.484;2023-04-01T00:03:28;98588.56;;;11.28;100.00
15193;BME280;7697;51.630;7.484;2023-04-01T00:08:32;98578.41;;;11.20;100.00
15193;BME280;7697;51.630;7.484;2023-04-01T00:13:34;98598.88;;;11.24;100.00
15193;BME280;7697;51.630;7.484;2023-04-01T00:18:36;98597.53;;;11.22;100.00
15193;BME280;7697;51.630;7.484;2023-04-01T00:23:39;98600.88;;;11.12;100.00
15193;BME280;7697;51.630;7.484;2023-04-01T00:28:40;98592.69;;;11.14;100.00
15193;BME280;7697;51.630;7.484;2023-04-01T00:33:43;98597.97;;;11.14;100.00
15193;BME280;7697;51.630;7.484;2023-04-01T00:38:46;98585.13;;;11.01;100.00
15193;BME280;7697;51.630;7.484;2023-04-01T00:43:49;98597.63;;;11.05;100.00
15193;BME280;7697;51.630;7.484;2023-04-01T00:48:53;98595.19;;;10.99;100.00
15193;BME280;7697;51.630;7.484;2023-04-01T00:53:59;98602.94;;;11.05;100.00
15193;BME280;7697;51.630;7.484;2023-04-01T00:59:06;98591.50;;;11.00;100.00
15193;BME280;7697;51.630;7.484;2023-04-01T01:04:21;98588.50;;;10.91;100.00
15193;BME280;7697;51.630;7.484;2023-04-01T01:09:31;98584.00;;;10.91;100.00
15193;BME280;7697;51.630;7.484;2023-04-01T01:14:48;98579.50;;;10.92;100.00
15193;BME280;7697;51.630;7.484;2023-04-01T01:20:00;98584.00;;;10.91;100.00
15193;BME280;7697;51.630;7.484;2023-04-01T01:25:20;98572.06;;;10.89;100.00
15193;BME280;7697;51.630;7.484;2023-04-01T01:30:37;98568.63;;;10.88;100.00
15193;BME280;7697;51.630;7.484;2023-04-01T01:35:44;98563.53;;;10.82;100.00
15193;BME280;7697;51.630;7.484;2023-04-01T01:40:50;98567.72;;;10.78;100.00
15193;BME280;7697;51.630;7.484;2023-04-01T01:45:55;98564.28;;;10.77;100.00
15193;BME280;7697;51.630;7.484;2023-04-01T01:51:01;98562.41;;;10.78;100.00
15193;BME280;7697;51.630;7.484;2023-04-01T01:56:04;98565.63;;;10.80;100.00
15193;BME280;7697;51.630;7.484;2023-04-01T02:01:10;98563.78;;;10.80;100.00
15193;BME280;7697;51.630;7.484;2023-04-01T02:06:17;98564.50;;;10.76;100.00
15193;BME280;7697;51.630;7.484;2023-04-01T02:11:21;98573.50;;;10.75;100.00
15193;BME280;7697;51.630;7.484;2023-04-01T02:16:28;98574.63;;;10.79;100.00
15193;BME280;7697;51.630;7.484;2023-04-01T02:21:35;98581.28;;;10.81;100.00
15193;BME280;7697;51.630;7.484;2023-04-01T02:26:38;98568.72;;;10.72;100.00
15193;BME280;7697;51.630;7.484;2023-04-01T02:31:42;98562.63;;;10.71;100.00
15193;BME280;7697;51.630;7.484;2023-04-01T02:36:46;98562.91;;;10.75;100.00
15193;BME280;7697;51.630;7.484;2023-04-01T02:41:49;98555.50;;;10.72;100.00
15193;BME280;7697;51.630;7.484;2023-04-01T02:46:50;98559.66;;;10.68;100.00
15193;BME280;7697;51.630;7.484;2023-04-01T02:51:54;98560.72;;;10.67;100.00
15193;BME280;7697;51.630;7.484;2023-04-01T02:56:56;98570.81;;;10.70;100.00
15193;BME280;7697;51.630;7.484;2023-04-01T03:01:57;98568.41;;;10.68;100.00
15193;BME280;7697;51.630;7.484;2023-04-01T03:07:01;98569.22;;;10.69;100.00
15193;BME280;7697;51.630;7.484;2023-04-01T03:12:03;98573.41;;;10.65;100.00
15193;BME280;7697;51.630;7.484;2023-04-01T03:17:05;98576.00;;;10.60;100.00
15193;BME280;7697;51.630;7.484;2023-04-01T03:22:09;98578.97;;;10.63;100.00
15193;BME280;7697;51.630;7.484;2023-04-01T03:27:12;98576.00;;;10.60;100.00
15193;BME280;7697;51.630;7.484;2023-04-01T03:32:13;98573.91;;;10.62;100.00
15193;BME280;7697;51.630;7.484;2023-04-01T03:37:16;98570.91;;;10.53;100.00
15193;BME280;7697;51.630;7.484;2023-04-01T03:42:18;98586.53;;;10.55;100.00
15193;BME280;7697;51.630;7.484;2023-04-01T03:47:20;98586.03;;;10.58;100.00
15193;BME280;7697;51.630;7.484;2023-04-01T03:52:23;98596.63;;;10.58;100.00
15193;BME280;7697;51.630;7.484;2023-04-01T03:57:25;98601.13;;;10.57;100.00
15193;BME280;7697;51.630;7.484;2023-04-01T04:02:27;98605.13;;;10.60;100.00
15193;BME280;7697;51.630;7.484;2023-04-01T04:07:30;98600.59;;;10.55;100.00
15193;BME280;7697;51.630;7.484;2023-04-01T04:12:32;98611.78;;;10.62;100.00
15193;BME280;7697;51.630;7.484;2023-04-01T04:17:34;98605.34;;;10.58;100.00
15193;BME280;7697;51.630;7.484;2023-04-01T04:22:37;98605.91;;;10.60;100.00
15193;BME280;7697;51.630;7.484;2023-04-01T04:27:39;98608.81;;;10.59;100.00
15193;BME280;7697;51.630;7.484;2023-04-01T04:32:40;98608.25;;;10.57;100.00
15193;BME280;7697;51.630;7.484;2023-04-01T04:37:43;98622.03;;;10.59;100.00
15193;BME280;7697;51.630;7.484;2023-04-01T04:42:45;98612.47;;;10.52;100.00
15193;BME280;7697;51.630;7.484;2023-04-01T04:47:47;98621.03;;;10.65;100.00
15193;BME280;7697;51.630;7.484;2023-04-01T04:52:50;98621.03;;;10.65;100.00
15193;BME280;7697;51.630;7.484;2023-04-01T04:57:52;98628.44;;;10.63;100.00
15193;BME280;7697;51.630;7.484;2023-04-01T05:02:53;98637.44;;;10.62;100.00
15193;BME280;7697;51.630;7.484;2023-04-01T05:07:57;98634.22;;;10.60;100.00
15193;BME280;7697;51.630;7.484;2023-04-01T05:12:58;98633.19;;;10.61;100.00
15193;BME280;7697;51.630;7.484;2023-04-01T05:18:00;98640.00;;;10.57;100.00
15193;BME280;7697;51.630;7.484;2023-04-01T05:23:03;98637.94;;;10.59;100.00
15193;BME280;7697;51.630;7.484;2023-04-01T05:28:05;98636.41;;;10.63;100.00
15193;BME280;7697;51.630;7.484;2023-04-01T05:33:07;98645.19;;;10.68;100.00
15193;BME280;7697;51.630;7.484;2023-04-01T05:38:10;98639.88;;;10.68;100.00
15193;BME280;7697;51.630;7.484;2023-04-01T05:43:12;98643.59;;;10.67;100.00
15193;BME280;7697;51.630;7.484;2023-04-01T05:48:14;98661.38;;;10.72;100.00
15193;BME280;7697;51.630;7.484;2023-04-01T05:53:18;98659.53;;;10.72;100.00
15193;BME280;7697;51.630;7.484;2023-04-01T05:58:20;98648.63;;;10.69;100.00
15193;BME280;7697;51.630;7.484;2023-04-01T06:03:21;98659.81;;;10.76;100.00
15193;BME280;7697;51.630;7.484;2023-04-01T06:08:24;98650.56;;;10.73;100.00
15193;BME280;7697;51.630;7.484;2023-04-01T06:13:37;98667.88;;;10.86;100.00
15193;BME280;7697;51.630;7.484;2023-04-01T06:19:09;98670.75;;;10.79;100.00
15193;BME280;7697;51.630;7.484;2023-04-01T06:24:37;98681.69;;;10.88;100.00
15193;BME280;7697;51.630;7.484;2023-04-01T06:29:49;98687.53;;;10.90;100.00
15193;BME280;7697;51.630;7.484;2023-04-01T06:35:17;98691.53;;;10.93;100.00
15193;BME280;7697;51.630;7.484;2023-04-01T06:40:42;98680.66;;;10.89;100.00
15193;BME280;7697;51.630;7.484;2023-04-01T06:45:54;98685.44;;;10.92;100.00
15193;BME280;7697;51.630;7.484;2023-04-01T06:51:04;98694.81;;;11.00;100.00
15193;BME280;7697;51.630;7.484;2023-04-01T06:56:15;98695.97;;;11.09;100.00
15193;BME280;7697;51.630;7.484;2023-04-01T07:01:22;98699.94;;;11.11;100.00
15193;BME280;7697;51.630;7.484;2023-04-01T07:06:28;98696.75;;;11.09;100.00
15193;BME280;7697;51.630;7.484;2023-04-01T07:11:38;98700.50;;;11.13;100.00
15193;BME280;7697;51.630;7.484;2023-04-01T07:16:43;98707.72;;;11.18;100.00
15193;BME280;7697;51.630;7.484;2023-04-01T07:21:48;98712.25;;;11.22;100.00
15193;BME280;7697;51.630;7.484;2023-04-01T07:26:55;98719.97;;;11.24;100.00
15193;BME280;7697;51.630;7.484;2023-04-01T07:32:15;98723.34;;;11.19;100.00
15193;BME280;7697;51.630;7.484;2023-04-01T07:37:25;98715.72;;;11.23;100.00
15193;BME280;7697;51.630;7.484;2023-04-01T07:42:37;98717.00;;;11.20;100.00
15193;BME280;7697;51.630;7.484;2023-04-01T07:47:56;98722.53;;;11.19;100.00
15193;BME280;7697;51.630;7.484;2023-04-01T07:53:10;98722.53;;;11.19;100.00
15193;BME280;7697;51.630;7.484;2023-04-01T07:58:24;98740.66;;;11.27;100.00
15193;BME280;7697;51.630;7.484;2023-04-01T08:03:42;98737.72;;;11.23;100.00
15193;BME280;7697;51.630;7.484;2023-04-01T08:08:58;98740.03;;;11.20;100.00
15193;BME280;7697;51.630;7.484;2023-04-01T08:14:09;98744.41;;;11.31;100.00
15193;BME280;7697;51.630;7.484;2023-04-01T08:19:22;98756.38;;;11.34;100.00
15193;BME280;7697;51.630;7.484;2023-04-01T08:24:35;98767.06;;;11.44;100.00
15193;BME280;7697;51.630;7.484;2023-04-01T08:29:46;98766.31;;;11.48;100.00
15193;BME280;7697;51.630;7.484;2023-04-01T08:35:02;98764.44;;;11.44;100.00
15193;BME280;7697;51.630;7.484;2023-04-01T08:40:37;98771.63;;;11.48;100.00
15193;BME280;7697;51.630;7.484;2023-04-01T08:45:49;98779.94;;;11.57;100.00
15193;BME280;7697;51.630;7.484;2023-04-01T08:56:42;98798.56;;;11.62;100.00
15193;BME280;7697;51.630;7.484;2023-04-01T09:02:25;98794.28;;;11.61;100.00
15193;BME280;7697;51.630;7.484;2023-04-01T09:07:40;98802.50;;;11.59;100.00
15193;BME280;7697;51.630;7.484;2023-04-01T09:13:14;98803.84;;;11.62;100.00
15193;BME280;7697;51.630;7.484;2023-04-01T09:18:40;98810.81;;;11.68;100.00
15193;BME280;7697;51.630;7.484;2023-04-01T09:24:07;98813.44;;;11.68;100.00
15193;BME280;7697;51.630;7.484;2023-04-01T09:29:30;98814.50;;;11.67;100.00
15193;BME280;7697;51.630;7.484;2023-04-01T09:34:48;98810.22;;;11.61;100.00
15193;BME280;7697;51.630;7.484;2023-04-01T09:40:15;98825.78;;;11.57;100.00
15193;BME280;7697;51.630;7.484;2023-04-01T09:45:41;98835.97;;;11.65;100.00
15193;BME280;7697;51.630;7.484;2023-04-01T09:50:52;98835.97;;;11.65;100.00
15193;BME280;7697;51.630;7.484;2023-04-01T09:56:23;98836.72;;;11.61;100.00
15193;BME280;7697;51.630;7.484;2023-04-01T10:01:51;98849.47;;;11.64;100.00
15193;BME280;7697;51.630;7.484;2023-04-01T10:07:44;98845.22;;;11.63;100.00
15193;BME280;7697;51.630;7.484;2023-04-01T10:13:12;98857.72;;;11.68;100.00
15193;BME280;7697;51.630;7.484;2023-04-01T10:18:45;98851.06;;;11.65;100.00
15193;BME280;7697;51.630;7.484;2023-04-01T10:24:06;98856.44;;;11.70;100.00
15193;BME280;7697;51.630;7.484;2023-04-01T10:29:41;98876.09;;;11.74;100.00
15193;BME280;7697;51.630;7.484;2023-04-01T10:35:20;98869.41;;;11.88;100.00
15193;BME280;7697;51.630;7.484;2023-04-01T10:40:42;98866.22;;;11.91;100.00
15193;BME280;7697;51.630;7.484;2023-04-01T10:46:21;98875.06;;;11.97;100.00
15193;BME280;7697;51.630;7.484;2023-04-01T10:52:11;98877.72;;;11.97;100.00
15193;BME280;7697;51.630;7.484;2023-04-01T10:57:36;98874.28;;;12.01;100.00
15193;BME280;7697;51.630;7.484;2023-04-01T11:03:02;98883.16;;;12.12;100.00
15193;BME280;7697;51.630;7.484;2023-04-01T11:19:50;98905.28;;;12.23;100.00
15193;BME280;7697;51.630;7.484;2023-04-01T11:25:24;98912.19;;;12.24;100.00
15193;BME280;7697;51.630;7.484;2023-04-01T11:30:49;98912.53;;;12.32;100.00
15193;BME280;7697;51.630;7.484;2023-04-01T11:36:02;98919.97;;;12.35;100.00
15193;BME280;7697;51.630;7.484;2023-04-01T11:41:17;98917.88;;;12.37;100.00
15193;BME280;7697;51.630;7.484;2023-04-01T11:46:31;98933.66;;;12.49;100.00
15193;BME280;7697;51.630;7.484;2023-04-01T11:51:53;98938.97;;;12.49;100.00
15193;BME280;7697;51.630;7.484;2023-04-01T11:57:13;98939.53;;;12.51;100.00
15193;BME280;7697;51.630;7.484;2023-04-01T12:02:25;98950.78;;;12.63;100.00
15193;BME280;7697;51.630;7.484;2023-04-01T12:13:02;98951.41;;;12.75;100.00
15193;BME280;7697;51.630;7.484;2023-04-01T12:18:16;98949.69;;;12.59;100.00
15193;BME280;7697;51.630;7.484;2023-04-01T12:23:41;98959.00;;;12.62;100.00
15193;BME280;7697;51.630;7.484;2023-04-01T12:28:59;98960.59;;;12.63;100.00
15193;BME280;7697;51.630;7.484;2023-04-01T12:34:38;98973.06;;;12.62;100.00
15193;BME280;7697;51.630;7.484;2023-04-01T12:40:02;98979.97;;;12.58;100.00
15193;BME280;7697;51.630;7.484;2023-04-01T12:45:29;98982.31;;;12.55;100.00
15193;BME280;7697;51.630;7.484;2023-04-01T12:51:00;98987.78;;;12.43;100.00
15193;BME280;7697;51.630;7.484;2023-04-01T12:56:10;98981.81;;;12.31;100.00
15193;BME280;7697;51.630;7.484;2023-04-01T13:01:34;99002.59;;;12.39;100.00
15193;BME280;7697;51.630;7.484;2023-04-01T13:06:50;99007.91;;;12.39;100.00
15193;BME280;7697;51.630;7.484;2023-04-01T13:12:06;98999.91;;;12.34;100.00
15193;BME280;7697;51.630;7.484;2023-04-01T13:17:18;99022.91;;;12.50;100.00
15193;BME280;7697;51.630;7.484;2023-04-01T13:22:33;99010.66;;;12.49;100.00
15193;BME280;7697;51.630;7.484;2023-04-01T13:27:40;99026.66;;;12.54;100.00
15193;BME280;7697;51.630;7.484;2023-04-01T13:32:47;99031.66;;;12.51;100.00
15193;BME280;7697;51.630;7.484;2023-04-01T13:38:03;99035.06;;;12.46;100.00
15193;BME280;7697;51.630;7.484;2023-04-01T13:43:14;99042.22;;;12.46;100.00
15193;BME280;7697;51.630;7.484;2023-04-01T13:48:45;99051.06;;;12.51;100.00
15193;BME280;7697;51.630;7.484;2023-04-01T13:54:03;99046.69;;;12.40;100.00
15193;BME280;7697;51.630;7.484;2023-04-01T14:04:56;99070.59;;;12.40;100.00
15193;BME280;7697;51.630;7.484;2023-04-01T14:10:17;99069.41;;;12.31;100.00
15193;BME280;7697;51.630;7.484;2023-04-01T14:15:32;99068.28;;;12.27;100.00
15193;BME280;7697;51.630;7.484;2023-04-01T14:20:40;99073.91;;;12.30;100.00
15193;BME280;7697;51.630;7.484;2023-04-01T14:26:18;99097.84;;;12.35;100.00
15193;BME280;7697;51.630;7.484;2023-04-01T14:31:34;99084.72;;;12.24;100.00
15193;BME280;7697;51.630;7.484;2023-04-01T14:36:50;99099.09;;;12.28;100.00
15193;BME280;7697;51.630;7.484;2023-04-01T14:42:07;99108.47;;;12.35;100.00
15193;BME280;7697;51.630;7.484;2023-04-01T14:47:31;99110.09;;;12.36;100.00
15193;BME280;7697;51.630;7.484;2023-04-01T14:52:39;99119.91;;;12.36;100.00
15193;BME280;7697;51.630;7.484;2023-04-01T14:57:58;99127.34;;;12.34;100.00
15193;BME280;7697;51.630;7.484;2023-04-01T15:03:06;99117.69;;;12.28;100.00
15193;BME280;7697;51.630;7.484;2023-04-01T15:08:14;99117.63;;;12.23;100.00
15193;BME280;7697;51.630;7.484;2023-04-01T15:13:29;99132.06;;;12.32;100.00
15193;BME280;7697;51.630;7.484;2023-04-01T15:18:44;99143.97;;;12.29;100.00
15193;BME280;7697;51.630;7.484;2023-04-01T15:24:06;99153.88;;;12.34;100.00
15193;BME280;7697;51.630;7.484;2023-04-01T15:29:25;99157.50;;;12.28;100.00
15193;BME280;7697;51.630;7.484;2023-04-01T15:34:37;99171.34;;;12.30;100.00
15193;BME280;7697;51.630;7.484;2023-04-01T15:39:51;99169.97;;;12.27;100.00
15193;BME280;7697;51.630;7.484;2023-04-01T15:45:09;99185.88;;;12.27;100.00
15193;BME280;7697;51.630;7.484;2023-04-01T15:50:46;99192.00;;;12.28;100.00
15193;BME280;7697;51.630;7.484;2023-04-01T15:55:55;99192.00;;;12.28;100.00
15193;BME280;7697;51.630;7.484;2023-04-01T16:01:07;99198.13;;;12.28;100.00
15193;BME280;7697;51.630;7.484;2023-04-01T16:11:53;99220.97;;;12.29;100.00
15193;BME280;7697;51.630;7.484;2023-04-01T16:17:16;99223.84;;;12.28;100.00
15193;BME280;7697;51.630;7.484;2023-04-01T16:22:24;99223.84;;;12.28;100.00
15193;BME280;7697;51.630;7.484;2023-04-01T16:27:35;99230.22;;;12.27;100.00
15193;BME280;7697;51.630;7.484;2023-04-01T16:32:46;99221.06;;;12.18;100.00
15193;BME280;7697;51.630;7.484;2023-04-01T16:37:59;99234.66;;;12.21;100.00
15193;BME280;7697;51.630;7.484;2023-04-01T16:43:11;99240.28;;;12.25;100.00
15193;BME280;7697;51.630;7.484;2023-04-01T16:48:19;99249.31;;;12.24;100.00
15193;BME280;7697;51.630;7.484;2023-04-01T16:53:34;99261.59;;;12.30;100.00
15193;BME280;7697;51.630;7.484;2023-04-01T16:58:40;99265.53;;;12.27;100.00
15193;BME280;7697;51.630;7.484;2023-04-01T17:03:46;99277.75;;;12.28;100.00
15193;BME280;7697;51.630;7.484;2023-04-01T17:14:21;99289.13;;;12.24;100.00
15193;BME280;7697;51.630;7.484;2023-04-01T17:19:42;99294.84;;;12.16;100.00
15193;BME280;7697;51.630;7.484;2023-04-01T17:24:59;99292.66;;;12.13;100.00
15193;BME280;7697;51.630;7.484;2023-04-01T17:30:25;99305.59;;;12.09;100.00
15193;BME280;7697;51.630;7.484;2023-04-01T17:35:32;99320.81;;;12.14;100.00
15193;BME280;7697;51.630;7.484;2023-04-01T17:40:44;99324.97;;;12.10;100.00
15193;BME280;7697;51.630;7.484;2023-04-01T17:45:54;99343.16;;;12.18;100.00
15193;BME280;7697;51.630;7.484;2023-04-01T17:51:10;99343.41;;;12.16;100.00
15193;BME280;7697;51.630;7.484;2023-04-01T17:56:34;99339.78;;;12.06;100.00
15193;BME280;7697;51.630;7.484;2023-04-01T18:01:47;99364.31;;;12.13;100.00
15193;BME280;7697;51.630;7.484;2023-04-01T18:07:09;99370.06;;;12.10;100.00
15193;BME280;7697;51.630;7.484;2023-04-01T18:12:19;99369.28;;;12.09;100.00
15193;BME280;7697;51.630;7.484;2023-04-01T18:17:33;99376.53;;;12.14;100.00
15193;BME280;7697;51.630;7.484;2023-04-01T18:22:44;99384.53;;;12.02;100.00
15193;BME280;7697;51.630;7.484;2023-04-01T18:27:49;99374.91;;;11.96;100.00
15193;BME280;7697;51.630;7.484;2023-04-01T18:32:56;99417.19;;;12.02;100.00
15193;BME280;7697;51.630;7.484;2023-04-01T18:38:06;99430.69;;;12.01;100.00
15193;BME280;7697;51.630;7.484;2023-04-01T18:43:18;99433.16;;;11.91;100.00
15193;BME280;7697;51.630;7.484;2023-04-01T18:48:37;99452.16;;;11.99;100.00
15193;BME280;7697;51.630;7.484;2023-04-01T18:53:48;99466.59;;;11.92;100.00
15193;BME280;7697;51.630;7.484;2023-04-01T18:58:58;99473.22;;;11.78;100.00
15193;BME280;7697;51.630;7.484;2023-04-01T19:04:10;99491.41;;;11.74;100.00
15193;BME280;7697;51.630;7.484;2023-04-01T19:09:22;99491.19;;;11.64;100.00
15193;BME280;7697;51.630;7.484;2023-04-01T19:14:30;99518.44;;;11.59;100.00
15193;BME280;7697;51.630;7.484;2023-04-01T19:19:50;99531.00;;;11.52;100.00
15193;BME280;7697;51.630;7.484;2023-04-01T19:25:09;99532.38;;;11.43;100.00
15193;BME280;7697;51.630;7.484;2023-04-01T19:30:25;99543.34;;;11.35;100.00
15193;BME280;7697;51.630;7.484;2023-04-01T19:35:40;99542.88;;;11.26;100.00
15193;BME280;7697;51.630;7.484;2023-04-01T19:40:52;99560.13;;;11.29;100.00
15193;BME280;7697;51.630;7.484;2023-04-01T19:46:01;99565.78;;;11.21;100.00
15193;BME280;7697;51.630;7.484;2023-04-01T19:51:08;99555.84;;;11.05;100.00
15193;BME280;7697;51.630;7.484;2023-04-01T19:56:16;99585.56;;;11.07;100.00
15193;BME280;7697;51.630;7.484;2023-04-01T20:01:32;99583.78;;;10.89;100.00
15193;BME280;7697;51.630;7.484;2023-04-01T20:06:43;99588.50;;;10.87;100.00
15193;BME280;7697;51.630;7.484;2023-04-01T20:11:55;99629.97;;;10.93;100.00
15193;BME280;7697;51.630;7.484;2023-04-01T20:17:08;99632.81;;;10.80;100.00
15193;BME280;7697;51.630;7.484;2023-04-01T20:22:28;99650.75;;;10.78;100.00
15193;BME280;7697;51.630;7.484;2023-04-01T20:27:38;99670.75;;;10.74;100.00
15193;BME280;7697;51.630;7.484;2023-04-01T20:33:00;99674.31;;;10.68;100.00
15193;BME280;7697;51.630;7.484;2023-04-01T20:38:25;99688.16;;;10.51;100.00
15193;BME280;7697;51.630;7.484;2023-04-01T20:43:42;99716.25;;;10.52;100.00
15193;BME280;7697;51.630;7.484;2023-04-01T20:54:47;99731.72;;;10.31;100.00
15193;BME280;7697;51.630;7.484;2023-04-01T21:00:27;99747.47;;;10.26;100.00
15193;BME280;7697;51.630;7.484;2023-04-01T21:11:05;99775.41;;;10.15;100.00
15193;BME280;7697;51.630;7.484;2023-04-01T21:16:19;99789.53;;;10.02;100.00
15193;BME280;7697;51.630;7.484;2023-04-01T21:26:52;99811.31;;;9.73;100.00
15193;BME280;7697;51.630;7.484;2023-04-01T21:32:18;99826.63;;;9.58;100.00
15193;BME280;7697;51.630;7.484;2023-04-01T21:43:03;99852.47;;;9.49;100.00
15193;BME280;7697;51.630;7.484;2023-04-01T21:48:31;99857.19;;;9.47;100.00
15193;BME280;7697;51.630;7.484;2023-04-01T21:53:57;99888.53;;;9.37;100.00
15193;BME280;7697;51.630;7.484;2023-04-01T22:04:52;99888.56;;;9.24;100.00
15193;BME280;7697;51.630;7.484;2023-04-01T22:10:03;99912.94;;;9.26;100.00
15193;BME280;7697;51.630;7.484;2023-04-01T22:15:15;99913.38;;;9.16;100.00
15193;BME280;7697;51.630;7.484;2023-04-01T22:20:27;99930.44;;;9.14;100.00
15193;BME280;7697;51.630;7.484;2023-04-01T22:25:34;99941.03;;;9.07;100.00
15193;BME280;7697;51.630;7.484;2023-04-01T22:30:41;99965.78;;;9.13;100.00
15193;BME280;7697;51.630;7.484;2023-04-01T22:35:51;99961.53;;;8.98;100.00
15193;BME280;7697;51.630;7.484;2023-04-01T22:41:01;99978.00;;;8.94;100.00
15193;BME280;7697;51.630;7.484;2023-04-01T22:46:20;100005.63;;;8.98;100.00
15193;BME280;7697;51.630;7.484;2023-04-01T22:51:38;100015.38;;;8.91;100.00
15193;BME280;7697;51.630;7.484;2023-04-01T22:56:46;100020.66;;;8.84;100.00
15193;BME280;7697;51.630;7.484;2023-04-01T23:01:54;100039.94;;;8.78;100.00
15193;BME280;7697;51.630;7.484;2023-04-01T23:07:03;100025.09;;;8.64;100.00
15193;BME280;7697;51.630;7.484;2023-04-01T23:12:10;100043.38;;;8.72;100.00
15193;BME280;7697;51.630;7.484;2023-04-01T23:17:38;100047.41;;;8.68;100.00
15193;BME280;7697;51.630;7.484;2023-04-01T23:22:54;100074.00;;;8.60;100.00
15193;BME280;7697;51.630;7.484;2023-04-01T23:28:19;100082.28;;;8.50;100.00
15193;BME280;7697;51.630;7.484;2023-04-01T23:33:27;100099.34;;;8.48;100.00
15193;BME280;7697;51.630;7.484;2023-04-01T23:38:33;100101.53;;;8.38;100.00
15193;BME280;7697;51.630;7.484;2023-04-01T23:43:37;100100.28;;;8.34;100.00
15193;BME280;7697;51.630;7.484;2023-04-01T23:48:42;100126.06;;;8.32;100.00
15193;BME280;7697;51.630;7.484;2023-04-01T23:53:47;100130.84;;;8.21;100.00
15193;BME280;7697;51.630;7.484;2023-04-01T23:58:57;100161.97;;;8.33;100.00
